Aviation Digital Data Service (ADDS)

Output produced by METARs form (0833 UTC 31 March 2015)
found at http://www.aviationweather.gov/adds/metars/
 
SEGU 310800Z 22006KT 8000 VCSH FEW006 BKN016 OVC080 25/22 Q1011 TEMPO 6000 RA RMK A2987
SEGU 310530Z 3106/0106 23005KT 8000 RA FEW010 BKN016 OVC080 
     FM311100 VRB02KT 9999 FEW010 BKN020 BKN090 
     FM311700 06005KT 9999 SCT023 BKN090 
     TEMPO 3122/3124 8000 RA BKN020 
     FM010000 22006KT 9999 FEW010 BKN020 BKN090 
     TEMPO 0103/0106 6000 RA TX32/3120Z TN24/3110Z
       
SEMT 310800Z 12003KT 9999 BKN0926 25/24 Q1011 RMK A2988
SEMT 310530Z 3106/0106 16005KT 9999 SCT020 BKN100 
     TEMPO 3106/3108 RA 
     FM311300 VRB03KT 9999 SCT020 SCT100 
     FM311800 27010KT 9999 SCT023 
     TEMPO 3120/3123 8000 SHRA BKN023 SCT100 
     FM010000 19006KT 9999 SCT023 BKN100 TX30/3120Z TN23/3110Z